createdAt,value
2022-09-16T00:00:10.440Z,100.00
2022-09-16T00:02:40.302Z,100.00
2022-09-16T00:05:10.876Z,100.00
2022-09-16T00:07:40.395Z,100.00
2022-09-16T00:10:11.081Z,100.00
2022-09-16T00:12:43.353Z,100.00
2022-09-16T00:15:13.852Z,100.00
2022-09-16T00:17:43.340Z,100.00
2022-09-16T00:20:13.439Z,100.00
2022-09-16T00:22:43.051Z,100.00
2022-09-16T00:25:12.888Z,100.00
2022-09-16T00:27:44.857Z,100.00
2022-09-16T00:30:14.927Z,100.00
2022-09-16T00:32:44.291Z,100.00
2022-09-16T00:35:13.692Z,100.00
2022-09-16T00:37:43.082Z,100.00
2022-09-16T00:40:13.180Z,100.00
2022-09-16T00:42:45.408Z,100.00
2022-09-16T00:45:18.315Z,100.00
2022-09-16T00:47:53.722Z,100.00
2022-09-16T00:50:26.096Z,100.00
2022-09-16T00:52:57.506Z,100.00
2022-09-16T00:55:30.905Z,100.00
2022-09-16T00:58:09.803Z,100.00
2022-09-16T01:00:39.686Z,100.00
2022-09-16T01:03:09.492Z,100.00
2022-09-16T01:05:40.578Z,100.00
2022-09-16T01:08:10.108Z,100.00
2022-09-16T01:10:39.506Z,100.00
2022-09-16T01:13:14.851Z,100.00
2022-09-16T01:15:49.595Z,100.00
2022-09-16T01:18:28.147Z,100.00
2022-09-16T01:21:16.398Z,100.00
2022-09-16T01:24:36.539Z,100.00
2022-09-16T01:27:23.002Z,100.00
2022-09-16T01:30:16.434Z,100.00
2022-09-16T01:33:01.397Z,100.00
2022-09-16T01:35:45.228Z,100.00
2022-09-16T01:38:31.554Z,100.00
2022-09-16T01:41:10.126Z,100.00
2022-09-16T01:43:50.456Z,100.00
2022-09-16T01:46:25.681Z,100.00
2022-09-16T01:49:03.878Z,100.00
2022-09-16T01:51:40.373Z,100.00
2022-09-16T01:54:15.018Z,100.00
2022-09-16T01:56:49.797Z,100.00
2022-09-16T01:59:24.912Z,100.00
2022-09-16T02:02:02.480Z,100.00
2022-09-16T02:04:40.089Z,100.00
2022-09-16T02:07:13.805Z,100.00
2022-09-16T02:09:47.175Z,100.00
2022-09-16T02:12:23.415Z,100.00
2022-09-16T02:14:56.568Z,100.00
2022-09-16T02:17:28.383Z,100.00
2022-09-16T02:20:05.334Z,100.00
2022-09-16T02:22:38.924Z,100.00
2022-09-16T02:25:11.464Z,100.00
2022-09-16T02:27:43.457Z,100.00
2022-09-16T02:30:17.714Z,100.00
2022-09-16T02:32:50.869Z,100.00
2022-09-16T02:35:24.845Z,100.00
2022-09-16T02:37:59.777Z,100.00
2022-09-16T02:40:32.091Z,100.00
2022-09-16T02:43:02.221Z,100.00
2022-09-16T02:45:43.531Z,100.00
2022-09-16T02:48:18.976Z,100.00
2022-09-16T03:03:34.246Z,100.00
2022-09-16T03:06:16.595Z,100.00
2022-09-16T03:08:47.408Z,100.00
2022-09-16T03:11:32.052Z,100.00
2022-09-16T03:14:16.724Z,100.00
2022-09-16T03:16:56.385Z,100.00
2022-09-16T03:19:37.991Z,100.00
2022-09-16T03:22:18.751Z,100.00
2022-09-16T03:24:56.438Z,100.00
2022-09-16T03:27:32.444Z,100.00
2022-09-16T03:30:07.332Z,100.00
2022-09-16T03:32:41.121Z,100.00
2022-09-16T03:35:20.308Z,100.00
2022-09-16T03:37:50.661Z,100.00
2022-09-16T03:40:22.524Z,100.00
2022-09-16T03:42:54.798Z,100.00
2022-09-16T03:45:25.169Z,100.00
2022-09-16T03:47:56.692Z,100.00
2022-09-16T03:50:28.756Z,100.00
2022-09-16T03:52:58.234Z,100.00
2022-09-16T03:55:27.723Z,100.00
2022-09-16T03:57:57.500Z,100.00
2022-09-16T04:00:28.976Z,100.00
2022-09-16T04:02:59.008Z,100.00
2022-09-16T04:05:31.555Z,100.00
2022-09-16T04:08:00.937Z,100.00
2022-09-16T04:10:30.414Z,100.00
2022-09-16T04:13:01.375Z,100.00
2022-09-16T04:15:30.802Z,100.00
2022-09-16T04:18:00.226Z,100.00
2022-09-16T04:20:32.340Z,100.00
2022-09-16T04:23:01.737Z,100.00
2022-09-16T04:25:31.196Z,100.00
2022-09-16T04:28:00.690Z,100.00
2022-09-16T04:30:30.328Z,100.00
2022-09-16T04:32:59.873Z,100.00
2022-09-16T04:35:31.904Z,100.00
2022-09-16T04:38:01.376Z,100.00
2022-09-16T04:40:30.820Z,100.00
2022-09-16T04:43:00.291Z,100.00
2022-09-16T04:45:29.790Z,100.00
2022-09-16T04:47:59.703Z,100.00
2022-09-16T04:50:31.753Z,100.00
2022-09-16T04:53:01.123Z,100.00
2022-09-16T04:55:31.550Z,100.00
2022-09-16T04:58:02.327Z,100.00
2022-09-16T05:00:31.789Z,100.00
2022-09-16T05:03:01.280Z,100.00
2022-09-16T05:05:33.346Z,100.00
2022-09-16T05:08:02.731Z,100.00
2022-09-16T05:10:32.113Z,100.00
2022-09-16T05:13:01.569Z,100.00
2022-09-16T05:15:31.142Z,100.00
2022-09-16T05:18:00.669Z,100.00
2022-09-16T05:20:32.730Z,100.00
2022-09-16T05:23:02.229Z,100.00
2022-09-16T05:25:31.707Z,100.00
2022-09-16T05:28:01.499Z,100.00
2022-09-16T05:30:30.917Z,100.00
2022-09-16T05:33:00.319Z,100.00
2022-09-16T05:35:34.016Z,100.00
2022-09-16T05:38:03.523Z,100.00
2022-09-16T05:40:33.091Z,100.00
2022-09-16T05:43:02.506Z,100.00
2022-09-16T05:45:32.697Z,100.00
2022-09-16T05:48:02.269Z,100.00
2022-09-16T05:50:34.308Z,100.00
2022-09-16T05:53:04.110Z,100.00
2022-09-16T05:55:33.475Z,100.00
2022-09-16T05:58:03.265Z,100.00
2022-09-16T06:00:32.605Z,100.00
2022-09-16T06:03:02.059Z,100.00
2022-09-16T06:05:34.489Z,100.00
2022-09-16T06:08:04.311Z,100.00
2022-09-16T06:10:34.315Z,100.00
2022-09-16T06:13:03.737Z,100.00
2022-09-16T06:15:33.194Z,100.00
2022-09-16T06:18:06.300Z,100.00
2022-09-16T06:20:39.204Z,100.00
2022-09-16T06:23:08.802Z,100.00
2022-09-16T06:25:38.223Z,100.00
2022-09-16T06:28:07.581Z,100.00
2022-09-16T06:30:37.048Z,100.00
2022-09-16T06:33:06.937Z,100.00
2022-09-16T06:35:38.991Z,100.00
2022-09-16T06:38:08.356Z,100.00
2022-09-16T06:40:37.735Z,100.00
2022-09-16T06:43:07.148Z,100.00
2022-09-16T06:45:36.517Z,100.00
2022-09-16T06:48:06.129Z,100.00
2022-09-16T06:50:35.543Z,100.00
2022-09-16T06:53:07.485Z,100.00
2022-09-16T06:55:37.386Z,100.00
2022-09-16T06:58:06.781Z,100.00
2022-09-16T07:00:36.156Z,100.00
2022-09-16T07:03:05.749Z,100.00
2022-09-16T07:05:35.146Z,100.00
2022-09-16T07:08:07.453Z,100.00
2022-09-16T07:10:36.877Z,100.00
2022-09-16T07:13:06.781Z,100.00
2022-09-16T07:15:50.960Z,100.00
2022-09-16T07:18:25.610Z,100.00
2022-09-16T07:20:54.966Z,100.00
2022-09-16T07:23:26.939Z,100.00
2022-09-16T07:26:03.288Z,100.00
2022-09-16T07:28:33.096Z,100.00
2022-09-16T07:31:03.850Z,100.00
2022-09-16T07:33:33.944Z,100.00
2022-09-16T07:36:03.785Z,100.00
2022-09-16T07:38:36.435Z,100.00
2022-09-16T07:41:11.407Z,100.00
2022-09-16T07:43:41.605Z,100.00
2022-09-16T07:46:12.399Z,100.00
2022-09-16T07:48:42.659Z,100.00
2022-09-16T07:51:14.367Z,100.00
2022-09-16T07:53:47.797Z,100.00
2022-09-16T07:56:19.670Z,100.00
2022-09-16T07:58:50.237Z,100.00
2022-09-16T08:01:20.786Z,100.00
2022-09-16T08:03:50.782Z,100.00
2022-09-16T08:06:22.072Z,100.00
2022-09-16T08:08:55.077Z,100.00
2022-09-16T08:11:25.275Z,100.00
2022-09-16T08:13:54.767Z,100.00
2022-09-16T08:16:25.578Z,100.00
2022-09-16T08:18:57.597Z,100.00
2022-09-16T08:21:30.245Z,100.00
2022-09-16T08:24:02.229Z,100.00
2022-09-16T08:26:31.593Z,100.00
2022-09-16T08:29:09.873Z,100.00
2022-09-16T08:31:40.768Z,96.48
2022-09-16T08:34:10.228Z,96.52
2022-09-16T08:36:40.344Z,94.44
2022-09-16T08:39:15.071Z,91.02
2022-09-16T08:41:55.762Z,94.92
2022-09-16T08:44:37.279Z,95.37
2022-09-16T08:47:11.799Z,91.79
2022-09-16T08:49:45.748Z,92.26
2022-09-16T08:52:21.395Z,85.77
2022-09-16T08:54:57.265Z,88.71
2022-09-16T08:57:31.008Z,84.32
2022-09-16T09:00:04.695Z,84.37
2022-09-16T09:05:21.465Z,89.55
2022-09-16T09:08:04.740Z,77.69
2022-09-16T09:10:43.569Z,69.01
2022-09-16T09:13:24.287Z,67.83
2022-09-16T09:16:00.210Z,70.50
2022-09-16T09:18:39.507Z,74.74
2022-09-16T09:21:19.915Z,75.96
2022-09-16T09:24:03.983Z,79.26
2022-09-16T09:26:41.910Z,90.54
2022-09-16T09:29:34.677Z,86.44
2022-09-16T09:32:14.564Z,92.58
2022-09-16T09:34:57.917Z,88.04
2022-09-16T09:37:50.991Z,75.95
2022-09-16T09:40:26.240Z,69.95
2022-09-16T09:43:08.083Z,61.84
2022-09-16T09:45:43.109Z,59.97
2022-09-16T09:48:21.311Z,55.28
2022-09-16T09:50:52.422Z,52.35
2022-09-16T09:53:28.656Z,53.61
2022-09-16T09:56:15.887Z,55.48
2022-09-16T09:58:56.122Z,53.27
2022-09-16T10:01:25.664Z,48.53
2022-09-16T10:03:57.519Z,52.02
2022-09-16T10:06:30.570Z,57.15
2022-09-16T10:09:01.632Z,61.58
2022-09-16T10:11:33.824Z,59.63
2022-09-16T10:14:05.911Z,53.57
2022-09-16T10:16:38.451Z,50.22
2022-09-16T10:19:11.277Z,53.67
2022-09-16T10:21:47.053Z,55.72
2022-09-16T10:24:33.852Z,56.23
2022-09-16T10:27:05.196Z,63.46
2022-09-16T10:29:37.164Z,65.41
2022-09-16T10:32:12.244Z,65.90
2022-09-16T10:34:43.365Z,56.44
2022-09-16T10:37:20.653Z,53.33
2022-09-16T10:39:55.766Z,51.45
2022-09-16T10:42:27.226Z,56.67
2022-09-16T10:45:06.236Z,66.95
2022-09-16T10:47:36.685Z,85.55
2022-09-16T10:50:08.596Z,91.95
2022-09-16T10:52:46.178Z,84.86
2022-09-16T10:55:26.298Z,72.65
2022-09-16T10:57:56.127Z,67.44
2022-09-16T11:00:34.734Z,61.44
2022-09-16T11:03:33.902Z,56.59
2022-09-16T11:06:17.984Z,56.30
2022-09-16T11:08:58.295Z,48.31
2022-09-16T11:11:40.405Z,48.42
2022-09-16T11:14:18.676Z,46.51
2022-09-16T11:17:05.726Z,44.43
2022-09-16T11:19:46.444Z,44.53
2022-09-16T11:22:27.162Z,47.02
2022-09-16T11:25:26.154Z,49.79
2022-09-16T11:28:05.019Z,52.47
2022-09-16T11:30:40.670Z,51.38
2022-09-16T11:33:26.046Z,51.54
2022-09-16T11:36:35.347Z,48.86
2022-09-16T11:39:16.491Z,46.42
2022-09-16T11:41:53.159Z,44.23
2022-09-16T11:44:35.187Z,43.83
2022-09-16T11:47:18.294Z,44.19
2022-09-16T11:50:08.594Z,43.06
2022-09-16T11:53:04.228Z,42.90
2022-09-16T11:55:48.880Z,41.77
2022-09-16T11:58:30.480Z,40.47
2022-09-16T12:01:06.706Z,40.66
2022-09-16T12:03:45.661Z,41.29
2022-09-16T12:06:22.339Z,41.53
2022-09-16T12:09:00.016Z,41.53
2022-09-16T12:11:33.307Z,41.26
2022-09-16T12:14:11.617Z,41.35
2022-09-16T12:16:48.383Z,41.23
2022-09-16T12:19:24.314Z,42.07
2022-09-16T12:22:03.911Z,41.82
2022-09-16T12:24:39.957Z,42.58
2022-09-16T12:27:16.440Z,41.81
2022-09-16T12:29:58.025Z,42.79
2022-09-16T12:32:44.875Z,42.41
2022-09-16T12:35:17.930Z,42.23
2022-09-16T12:37:52.975Z,40.28
2022-09-16T12:40:30.789Z,40.20
2022-09-16T12:43:23.140Z,41.76
2022-09-16T12:46:14.144Z,42.70
2022-09-16T12:49:12.916Z,43.09
2022-09-16T12:52:01.499Z,45.64
2022-09-16T12:55:08.547Z,55.28
2022-09-16T12:57:52.487Z,61.88
2022-09-16T13:00:25.735Z,60.45
2022-09-16T13:02:58.259Z,61.64
2022-09-16T13:05:33.492Z,58.59
2022-09-16T13:08:07.135Z,55.09
2022-09-16T13:11:18.279Z,55.37
2022-09-16T13:13:35.903Z,55.02
2022-09-16T13:16:08.741Z,54.56
2022-09-16T13:18:43.789Z,54.19
2022-09-16T13:21:25.667Z,53.59
2022-09-16T13:24:02.420Z,51.90
2022-09-16T13:26:45.287Z,49.19
2022-09-16T13:29:33.235Z,50.85
2022-09-16T13:32:03.412Z,47.88
2022-09-16T13:34:33.003Z,48.56
2022-09-16T13:37:02.466Z,51.94
2022-09-16T13:39:33.780Z,51.67
2022-09-16T13:42:24.921Z,54.92
2022-09-16T13:44:54.786Z,65.34
2022-09-16T13:47:40.330Z,100.00
2022-09-16T13:50:16.086Z,100.00
2022-09-16T13:52:46.630Z,100.00
2022-09-16T13:55:24.091Z,100.00
2022-09-16T13:58:04.417Z,100.00
2022-09-16T14:00:40.717Z,100.00
2022-09-16T14:03:25.155Z,100.00
2022-09-16T14:06:31.352Z,100.00
2022-09-16T14:09:05.888Z,100.00
2022-09-16T14:11:43.817Z,100.00
2022-09-16T14:14:45.710Z,100.00
2022-09-16T14:17:19.554Z,100.00
2022-09-16T14:19:51.674Z,100.00
2022-09-16T14:22:23.226Z,100.00
2022-09-16T14:25:00.908Z,100.00
2022-09-16T14:27:39.746Z,100.00
2022-09-16T14:30:21.636Z,95.53
2022-09-16T14:32:52.006Z,90.60
2022-09-16T14:35:24.525Z,80.28
2022-09-16T14:37:56.175Z,71.58
2022-09-16T14:40:28.439Z,70.26
2022-09-16T14:43:02.200Z,70.04
2022-09-16T14:45:35.702Z,68.96
2022-09-16T14:48:10.091Z,71.76
2022-09-16T14:50:41.723Z,77.04
2022-09-16T14:53:35.013Z,80.81
2022-09-16T14:56:05.775Z,83.64
2022-09-16T14:58:36.602Z,89.07
2022-09-16T15:01:14.305Z,91.72
2022-09-16T15:03:49.491Z,93.19
2022-09-16T15:06:22.927Z,90.01
2022-09-16T15:08:55.352Z,86.56
2022-09-16T15:11:46.905Z,76.56
2022-09-16T15:14:20.089Z,79.27
2022-09-16T15:16:55.649Z,75.09
2022-09-16T15:19:28.070Z,78.15
2022-09-16T15:21:59.271Z,78.27
2022-09-16T15:24:31.745Z,80.23
2022-09-16T15:27:02.346Z,78.63
2022-09-16T15:29:35.390Z,78.89
2022-09-16T15:32:28.215Z,79.17
2022-09-16T15:35:23.754Z,82.43
2022-09-16T15:37:54.066Z,83.20
2022-09-16T15:40:36.292Z,84.58
2022-09-16T15:43:18.001Z,86.58
2022-09-16T15:45:59.840Z,84.82
2022-09-16T15:48:34.895Z,86.67
2022-09-16T15:51:09.592Z,85.08
2022-09-16T15:53:46.041Z,85.91
2022-09-16T15:56:24.594Z,86.74
2022-09-16T15:58:58.086Z,89.76
2022-09-16T16:01:43.488Z,90.76
2022-09-16T16:04:24.207Z,94.95
2022-09-16T16:06:56.242Z,95.95
2022-09-16T16:09:51.026Z,97.32
2022-09-16T16:12:20.469Z,99.99
2022-09-16T16:14:49.881Z,100.00
2022-09-16T16:17:22.151Z,100.00
2022-09-16T16:19:56.174Z,100.00
2022-09-16T16:22:25.552Z,100.00
2022-09-16T16:24:55.093Z,100.00
2022-09-16T16:27:24.511Z,100.00
2022-09-16T16:29:54.076Z,100.00
2022-09-16T16:32:23.439Z,100.00
2022-09-16T16:34:58.073Z,100.00
2022-09-16T16:37:45.559Z,100.00
2022-09-16T16:40:16.991Z,100.00
2022-09-16T16:42:46.666Z,100.00
2022-09-16T16:45:16.761Z,100.00
2022-09-16T16:47:46.480Z,100.00
2022-09-16T16:50:18.831Z,100.00
2022-09-16T16:52:53.349Z,100.00
2022-09-16T16:55:22.905Z,100.00
2022-09-16T16:57:52.467Z,100.00
2022-09-16T17:00:22.044Z,100.00
2022-09-16T17:02:51.490Z,100.00
2022-09-16T17:05:23.488Z,100.00
2022-09-16T17:07:52.942Z,100.00
2022-09-16T17:10:23.221Z,100.00
2022-09-16T17:12:52.585Z,100.00
2022-09-16T17:15:22.442Z,100.00
2022-09-16T17:17:51.818Z,100.00
2022-09-16T17:20:23.805Z,100.00
2022-09-16T17:22:53.187Z,100.00
2022-09-16T17:25:22.611Z,100.00
2022-09-16T17:27:51.972Z,100.00
2022-09-16T17:30:21.411Z,100.00
2022-09-16T17:32:50.784Z,100.00
2022-09-16T17:35:22.772Z,100.00
2022-09-16T17:37:52.219Z,100.00
2022-09-16T17:40:22.046Z,100.00
2022-09-16T17:42:53.868Z,100.00
2022-09-16T17:45:23.362Z,100.00
2022-09-16T17:47:52.888Z,100.00
2022-09-16T17:50:24.905Z,100.00
2022-09-16T17:52:54.445Z,100.00
2022-09-16T17:55:23.836Z,100.00
2022-09-16T17:57:53.271Z,100.00
2022-09-16T18:00:22.815Z,100.00
2022-09-16T18:02:52.336Z,100.00
2022-09-16T18:05:29.306Z,100.00
2022-09-16T18:07:59.397Z,100.00
2022-09-16T18:10:29.027Z,100.00
2022-09-16T18:12:58.893Z,100.00
2022-09-16T18:15:28.478Z,100.00
2022-09-16T18:17:57.993Z,100.00
2022-09-16T18:20:31.104Z,100.00
2022-09-16T18:23:00.509Z,100.00
2022-09-16T18:25:29.866Z,100.00
2022-09-16T18:27:59.724Z,100.00
2022-09-16T18:30:29.091Z,100.00
2022-09-16T18:32:58.453Z,100.00
2022-09-16T18:35:30.467Z,100.00
2022-09-16T18:37:59.811Z,100.00
2022-09-16T18:40:29.482Z,100.00
2022-09-16T18:42:58.910Z,100.00
2022-09-16T18:45:28.658Z,100.00
2022-09-16T18:47:58.035Z,100.00
2022-09-16T18:50:30.182Z,100.00
2022-09-16T18:52:59.571Z,100.00
2022-09-16T18:55:29.031Z,100.00
2022-09-16T18:57:58.731Z,100.00
2022-09-16T19:00:28.213Z,100.00
2022-09-16T19:02:57.780Z,100.00
2022-09-16T19:05:29.791Z,100.00
2022-09-16T19:07:59.146Z,100.00
2022-09-16T19:10:28.709Z,100.00
2022-09-16T19:12:58.075Z,100.00
2022-09-16T19:15:27.901Z,100.00
2022-09-16T19:17:57.798Z,100.00
2022-09-16T19:20:30.700Z,100.00
2022-09-16T19:23:00.083Z,100.00
2022-09-16T19:25:29.461Z,100.00
2022-09-16T19:27:59.078Z,100.00
2022-09-16T19:30:29.156Z,100.00
2022-09-16T19:32:58.663Z,100.00
2022-09-16T19:35:33.753Z,100.00
2022-09-16T19:38:04.497Z,100.00
2022-09-16T19:40:34.022Z,100.00
2022-09-16T19:43:03.556Z,100.00
2022-09-16T19:45:32.962Z,100.00
2022-09-16T19:48:02.429Z,100.00
2022-09-16T19:50:34.379Z,100.00
2022-09-16T19:53:03.808Z,100.00
2022-09-16T19:55:33.190Z,100.00
2022-09-16T19:58:02.747Z,100.00
2022-09-16T20:00:52.653Z,100.00
2022-09-16T20:03:21.893Z,100.00
2022-09-16T20:06:02.945Z,100.00
2022-09-16T20:08:33.467Z,100.00
2022-09-16T20:11:07.385Z,100.00
2022-09-16T20:13:37.303Z,100.00
2022-09-16T20:16:08.973Z,100.00
2022-09-16T20:18:39.351Z,100.00
2022-09-16T20:21:14.112Z,100.00
2022-09-16T20:23:45.125Z,100.00
2022-09-16T20:26:19.619Z,100.00
2022-09-16T20:28:51.743Z,100.00
2022-09-16T20:31:23.503Z,100.00
2022-09-16T20:33:53.817Z,100.00
2022-09-16T20:36:30.604Z,100.00
2022-09-16T20:39:02.419Z,100.00
2022-09-16T20:41:34.374Z,100.00
2022-09-16T20:44:04.676Z,100.00
2022-09-16T20:46:36.325Z,100.00
2022-09-16T20:49:10.733Z,100.00
2022-09-16T20:51:42.753Z,100.00
2022-09-16T20:54:15.763Z,100.00
2022-09-16T20:56:47.486Z,100.00
2022-09-16T20:59:20.155Z,100.00
2022-09-16T21:01:50.248Z,100.00
2022-09-16T21:04:21.273Z,100.00
2022-09-16T21:06:53.553Z,100.00
2022-09-16T21:09:23.236Z,100.00
2022-09-16T21:11:52.978Z,100.00
2022-09-16T21:14:22.739Z,100.00
2022-09-16T21:16:52.725Z,100.00
2022-09-16T21:19:22.164Z,100.00
2022-09-16T21:21:54.242Z,100.00
2022-09-16T21:24:23.718Z,100.00
2022-09-16T21:26:53.885Z,100.00
2022-09-16T21:29:24.673Z,100.00
2022-09-16T21:31:54.212Z,100.00
2022-09-16T21:34:24.789Z,100.00
2022-09-16T21:36:59.099Z,100.00
2022-09-16T21:39:28.650Z,100.00
2022-09-16T21:41:58.058Z,100.00
2022-09-16T21:44:27.763Z,100.00
2022-09-16T21:46:57.404Z,100.00
2022-09-16T21:49:29.069Z,100.00
2022-09-16T21:52:02.714Z,100.00
2022-09-16T21:54:33.216Z,100.00
2022-09-16T21:57:03.165Z,100.00
2022-09-16T21:59:32.575Z,100.00
2022-09-16T22:02:03.922Z,100.00
2022-09-16T22:04:33.633Z,100.00
2022-09-16T22:07:10.790Z,100.00
2022-09-16T22:09:40.725Z,100.00
2022-09-16T22:12:10.310Z,100.00
2022-09-16T22:14:39.904Z,100.00
2022-09-16T22:17:09.322Z,100.00
2022-09-16T22:19:38.811Z,100.00
2022-09-16T22:22:11.079Z,100.00
2022-09-16T22:24:40.494Z,100.00
2022-09-16T22:27:10.088Z,100.00
2022-09-16T22:29:39.513Z,100.00
2022-09-16T22:32:09.304Z,100.00
2022-09-16T22:34:38.882Z,100.00
2022-09-16T22:37:11.008Z,100.00
2022-09-16T22:39:40.400Z,100.00
2022-09-16T22:42:10.386Z,100.00
2022-09-16T22:44:39.774Z,100.00
2022-09-16T22:47:09.358Z,100.00
2022-09-16T22:49:42.131Z,100.00
2022-09-16T22:52:14.990Z,100.00
2022-09-16T22:54:45.014Z,100.00
2022-09-16T22:57:15.349Z,100.00
2022-09-16T22:59:44.939Z,100.00
2022-09-16T23:02:14.344Z,100.00
2022-09-16T23:04:43.893Z,100.00
2022-09-16T23:07:15.950Z,100.00
2022-09-16T23:09:45.411Z,100.00
2022-09-16T23:12:16.081Z,100.00
2022-09-16T23:14:45.509Z,100.00
2022-09-16T23:17:14.892Z,100.00
2022-09-16T23:19:44.323Z,100.00
2022-09-16T23:22:16.457Z,100.00
2022-09-16T23:24:46.003Z,100.00
2022-09-16T23:27:15.516Z,100.00
2022-09-16T23:29:44.901Z,100.00
2022-09-16T23:32:14.447Z,100.00
2022-09-16T23:34:44.027Z,100.00
2022-09-16T23:37:16.143Z,100.00
2022-09-16T23:39:45.590Z,100.00
2022-09-16T23:42:15.984Z,100.00
2022-09-16T23:44:45.738Z,100.00
2022-09-16T23:47:15.317Z,100.00
2022-09-16T23:49:44.781Z,100.00
2022-09-16T23:52:17.026Z,100.00
2022-09-16T23:54:52.001Z,100.00
2022-09-16T23:57:21.489Z,100.00
2022-09-16T23:59:52.895Z,100.00
